sensor_id;sensor_type;location;lat;lon;timestamp;P1;durP1;ratioP1;P2;durP2;ratioP2
35969;SDS011;22448;51.298;6.430;2024-01-16T00:02:00;16.63;;;7.53;;
35969;SDS011;22448;51.298;6.430;2024-01-16T00:04:28;17.92;;;8.43;;
35969;SDS011;22448;51.298;6.430;2024-01-16T00:06:56;14.93;;;8.90;;
35969;SDS011;22448;51.298;6.430;2024-01-16T00:09:23;21.10;;;9.57;;
35969;SDS011;22448;51.298;6.430;2024-01-16T00:11:50;20.15;;;9.75;;
35969;SDS011;22448;51.298;6.430;2024-01-16T00:14:18;17.60;;;10.07;;
35969;SDS011;22448;51.298;6.430;2024-01-16T00:16:45;21.45;;;10.65;;
35969;SDS011;22448;51.298;6.430;2024-01-16T00:19:13;24.77;;;13.55;;
35969;SDS011;22448;51.298;6.430;2024-01-16T00:21:40;28.00;;;13.38;;
35969;SDS011;22448;51.298;6.430;2024-01-16T00:24:08;23.50;;;12.70;;
35969;SDS011;22448;51.298;6.430;2024-01-16T00:26:35;28.98;;;15.00;;
35969;SDS011;22448;51.298;6.430;2024-01-16T00:29:03;26.25;;;14.40;;
35969;SDS011;22448;51.298;6.430;2024-01-16T00:31:30;30.80;;;14.82;;
35969;SDS011;22448;51.298;6.430;2024-01-16T00:33:57;32.72;;;14.15;;
35969;SDS011;22448;51.298;6.430;2024-01-16T00:36:24;27.70;;;16.13;;
35969;SDS011;22448;51.298;6.430;2024-01-16T00:38:51;33.58;;;16.85;;
35969;SDS011;22448;51.298;6.430;2024-01-16T00:41:18;30.70;;;17.60;;
35969;SDS011;22448;51.298;6.430;2024-01-16T00:43:46;28.98;;;17.45;;
35969;SDS011;22448;51.298;6.430;2024-01-16T00:46:13;41.45;;;18.13;;
35969;SDS011;22448;51.298;6.430;2024-01-16T00:48:40;33.03;;;19.35;;
35969;SDS011;22448;51.298;6.430;2024-01-16T00:51:07;34.78;;;19.40;;
35969;SDS011;22448;51.298;6.430;2024-01-16T00:53:39;39.22;;;22.73;;
35969;SDS011;22448;51.298;6.430;2024-01-16T00:56:07;41.95;;;24.23;;
35969;SDS011;22448;51.298;6.430;2024-01-16T00:58:34;41.80;;;24.75;;
35969;SDS011;22448;51.298;6.430;2024-01-16T01:01:01;44.85;;;26.13;;
35969;SDS011;22448;51.298;6.430;2024-01-16T01:03:29;48.58;;;27.65;;
35969;SDS011;22448;51.298;6.430;2024-01-16T01:05:56;41.53;;;26.27;;
35969;SDS011;22448;51.298;6.430;2024-01-16T01:08:23;44.63;;;26.52;;
35969;SDS011;22448;51.298;6.430;2024-01-16T01:10:51;43.53;;;26.02;;
35969;SDS011;22448;51.298;6.430;2024-01-16T01:13:18;48.35;;;26.42;;
35969;SDS011;22448;51.298;6.430;2024-01-16T01:15:45;42.58;;;25.45;;
35969;SDS011;22448;51.298;6.430;2024-01-16T01:18:13;38.30;;;24.98;;
35969;SDS011;22448;51.298;6.430;2024-01-16T01:20:39;39.25;;;23.33;;
35969;SDS011;22448;51.298;6.430;2024-01-16T01:23:07;41.75;;;23.90;;
35969;SDS011;22448;51.298;6.430;2024-01-16T01:25:34;37.30;;;23.00;;
35969;SDS011;22448;51.298;6.430;2024-01-16T01:28:01;45.60;;;24.88;;
35969;SDS011;22448;51.298;6.430;2024-01-16T01:30:28;37.78;;;23.75;;
35969;SDS011;22448;51.298;6.430;2024-01-16T01:32:55;35.80;;;23.15;;
35969;SDS011;22448;51.298;6.430;2024-01-16T01:35:22;39.28;;;23.65;;
35969;SDS011;22448;51.298;6.430;2024-01-16T01:37:49;41.10;;;23.75;;
35969;SDS011;22448;51.298;6.430;2024-01-16T01:40:16;40.28;;;24.25;;
35969;SDS011;22448;51.298;6.430;2024-01-16T01:42:43;40.88;;;25.65;;
35969;SDS011;22448;51.298;6.430;2024-01-16T01:45:10;39.58;;;25.52;;
35969;SDS011;22448;51.298;6.430;2024-01-16T01:47:39;35.15;;;24.67;;
35969;SDS011;22448;51.298;6.430;2024-01-16T01:50:09;39.78;;;26.95;;
35969;SDS011;22448;51.298;6.430;2024-01-16T01:52:38;47.08;;;26.27;;
35969;SDS011;22448;51.298;6.430;2024-01-16T01:55:07;44.08;;;25.83;;
35969;SDS011;22448;51.298;6.430;2024-01-16T01:57:38;43.92;;;24.75;;
35969;SDS011;22448;51.298;6.430;2024-01-16T02:00:06;49.13;;;27.10;;
35969;SDS011;22448;51.298;6.430;2024-01-16T02:02:40;46.58;;;27.15;;
35969;SDS011;22448;51.298;6.430;2024-01-16T02:05:09;46.72;;;25.92;;
35969;SDS011;22448;51.298;6.430;2024-01-16T02:07:56;42.78;;;25.13;;
35969;SDS011;22448;51.298;6.430;2024-01-16T02:10:24;43.88;;;26.77;;
35969;SDS011;22448;51.298;6.430;2024-01-16T02:12:51;39.78;;;25.05;;
35969;SDS011;22448;51.298;6.430;2024-01-16T02:15:18;47.50;;;25.95;;
35969;SDS011;22448;51.298;6.430;2024-01-16T02:17:47;48.20;;;25.85;;
35969;SDS011;22448;51.298;6.430;2024-01-16T02:20:14;51.38;;;27.33;;
35969;SDS011;22448;51.298;6.430;2024-01-16T02:22:42;47.05;;;27.35;;
35969;SDS011;22448;51.298;6.430;2024-01-16T02:27:41;50.17;;;26.95;;
35969;SDS011;22448;51.298;6.430;2024-01-16T02:30:09;50.25;;;27.60;;
35969;SDS011;22448;51.298;6.430;2024-01-16T02:32:36;54.97;;;27.75;;
35969;SDS011;22448;51.298;6.430;2024-01-16T02:35:04;51.85;;;28.23;;
35969;SDS011;22448;51.298;6.430;2024-01-16T02:37:32;46.35;;;27.77;;
35969;SDS011;22448;51.298;6.430;2024-01-16T02:39:59;50.90;;;28.30;;
35969;SDS011;22448;51.298;6.430;2024-01-16T02:42:27;46.80;;;26.55;;
35969;SDS011;22448;51.298;6.430;2024-01-16T02:44:56;40.85;;;27.08;;
35969;SDS011;22448;51.298;6.430;2024-01-16T02:47:23;52.47;;;27.67;;
35969;SDS011;22448;51.298;6.430;2024-01-16T02:49:50;47.50;;;25.80;;
35969;SDS011;22448;51.298;6.430;2024-01-16T02:52:17;47.08;;;26.58;;
35969;SDS011;22448;51.298;6.430;2024-01-16T02:54:45;50.00;;;27.83;;
35969;SDS011;22448;51.298;6.430;2024-01-16T02:57:12;45.22;;;26.33;;
35969;SDS011;22448;51.298;6.430;2024-01-16T02:59:39;60.72;;;26.90;;
35969;SDS011;22448;51.298;6.430;2024-01-16T03:02:06;44.67;;;25.83;;
35969;SDS011;22448;51.298;6.430;2024-01-16T03:04:34;53.22;;;25.83;;
35969;SDS011;22448;51.298;6.430;2024-01-16T03:07:01;46.92;;;24.42;;
35969;SDS011;22448;51.298;6.430;2024-01-16T03:09:28;42.70;;;25.08;;
35969;SDS011;22448;51.298;6.430;2024-01-16T03:11:55;50.15;;;25.13;;
35969;SDS011;22448;51.298;6.430;2024-01-16T03:14:22;45.50;;;25.50;;
35969;SDS011;22448;51.298;6.430;2024-01-16T03:16:49;44.85;;;24.52;;
35969;SDS011;22448;51.298;6.430;2024-01-16T03:19:17;44.55;;;24.80;;
35969;SDS011;22448;51.298;6.430;2024-01-16T03:21:44;40.25;;;21.35;;
35969;SDS011;22448;51.298;6.430;2024-01-16T03:24:11;38.33;;;21.15;;
35969;SDS011;22448;51.298;6.430;2024-01-16T03:26:38;32.28;;;22.40;;
35969;SDS011;22448;51.298;6.430;2024-01-16T03:29:05;40.22;;;19.83;;
35969;SDS011;22448;51.298;6.430;2024-01-16T03:31:32;30.63;;;20.38;;
35969;SDS011;22448;51.298;6.430;2024-01-16T03:33:59;36.60;;;19.92;;
35969;SDS011;22448;51.298;6.430;2024-01-16T03:36:27;35.30;;;19.48;;
35969;SDS011;22448;51.298;6.430;2024-01-16T03:38:55;41.42;;;19.98;;
35969;SDS011;22448;51.298;6.430;2024-01-16T03:41:22;35.55;;;18.45;;
35969;SDS011;22448;51.298;6.430;2024-01-16T03:43:49;34.90;;;18.75;;
35969;SDS011;22448;51.298;6.430;2024-01-16T03:46:16;26.70;;;17.15;;
35969;SDS011;22448;51.298;6.430;2024-01-16T03:48:44;23.50;;;15.23;;
35969;SDS011;22448;51.298;6.430;2024-01-16T03:51:11;29.50;;;15.23;;
35969;SDS011;22448;51.298;6.430;2024-01-16T03:53:41;27.73;;;13.88;;
35969;SDS011;22448;51.298;6.430;2024-01-16T03:56:08;27.27;;;14.50;;
35969;SDS011;22448;51.298;6.430;2024-01-16T03:58:35;27.52;;;14.95;;
35969;SDS011;22448;51.298;6.430;2024-01-16T04:01:03;22.20;;;13.13;;
35969;SDS011;22448;51.298;6.430;2024-01-16T04:03:30;28.15;;;13.93;;
35969;SDS011;22448;51.298;6.430;2024-01-16T04:05:57;26.00;;;14.43;;
35969;SDS011;22448;51.298;6.430;2024-01-16T04:08:24;26.52;;;15.02;;
35969;SDS011;22448;51.298;6.430;2024-01-16T04:10:51;24.67;;;14.40;;
35969;SDS011;22448;51.298;6.430;2024-01-16T04:13:18;31.50;;;15.80;;
35969;SDS011;22448;51.298;6.430;2024-01-16T04:15:45;32.22;;;16.35;;
35969;SDS011;22448;51.298;6.430;2024-01-16T04:18:12;25.38;;;15.85;;
35969;SDS011;22448;51.298;6.430;2024-01-16T04:20:39;30.25;;;16.88;;
35969;SDS011;22448;51.298;6.430;2024-01-16T04:23:07;30.20;;;17.10;;
35969;SDS011;22448;51.298;6.430;2024-01-16T04:25:34;31.05;;;16.90;;
35969;SDS011;22448;51.298;6.430;2024-01-16T04:28:01;35.83;;;19.35;;
35969;SDS011;22448;51.298;6.430;2024-01-16T04:30:28;33.55;;;19.05;;
35969;SDS011;22448;51.298;6.430;2024-01-16T04:32:55;41.88;;;20.17;;
35969;SDS011;22448;51.298;6.430;2024-01-16T04:35:23;43.75;;;21.83;;
35969;SDS011;22448;51.298;6.430;2024-01-16T04:37:50;46.22;;;23.50;;
35969;SDS011;22448;51.298;6.430;2024-01-16T04:40:18;38.25;;;22.50;;
35969;SDS011;22448;51.298;6.430;2024-01-16T04:42:45;47.83;;;23.55;;
35969;SDS011;22448;51.298;6.430;2024-01-16T04:45:12;44.30;;;24.70;;
35969;SDS011;22448;51.298;6.430;2024-01-16T04:47:39;45.63;;;25.25;;
35969;SDS011;22448;51.298;6.430;2024-01-16T04:50:07;40.30;;;24.30;;
35969;SDS011;22448;51.298;6.430;2024-01-16T04:52:34;41.40;;;24.92;;
35969;SDS011;22448;51.298;6.430;2024-01-16T04:55:01;38.30;;;23.77;;
35969;SDS011;22448;51.298;6.430;2024-01-16T04:57:28;45.30;;;25.20;;
35969;SDS011;22448;51.298;6.430;2024-01-16T04:59:56;49.95;;;24.00;;
35969;SDS011;22448;51.298;6.430;2024-01-16T05:02:23;44.83;;;23.60;;
35969;SDS011;22448;51.298;6.430;2024-01-16T05:04:50;45.50;;;24.42;;
35969;SDS011;22448;51.298;6.430;2024-01-16T05:07:18;48.83;;;22.80;;
35969;SDS011;22448;51.298;6.430;2024-01-16T05:09:48;36.08;;;21.60;;
35969;SDS011;22448;51.298;6.430;2024-01-16T05:12:15;42.20;;;21.45;;
35969;SDS011;22448;51.298;6.430;2024-01-16T05:14:42;42.47;;;21.02;;
35969;SDS011;22448;51.298;6.430;2024-01-16T05:17:09;38.70;;;20.65;;
35969;SDS011;22448;51.298;6.430;2024-01-16T05:19:37;59.85;;;22.48;;
35969;SDS011;22448;51.298;6.430;2024-01-16T05:22:04;38.70;;;19.08;;
35969;SDS011;22448;51.298;6.430;2024-01-16T05:24:31;41.47;;;22.23;;
35969;SDS011;22448;51.298;6.430;2024-01-16T05:26:58;41.28;;;21.55;;
35969;SDS011;22448;51.298;6.430;2024-01-16T05:29:25;40.67;;;21.13;;
35969;SDS011;22448;51.298;6.430;2024-01-16T05:31:52;47.58;;;21.67;;
35969;SDS011;22448;51.298;6.430;2024-01-16T05:34:19;47.95;;;21.70;;
35969;SDS011;22448;51.298;6.430;2024-01-16T05:36:46;38.28;;;21.25;;
35969;SDS011;22448;51.298;6.430;2024-01-16T05:39:13;41.42;;;20.98;;
35969;SDS011;22448;51.298;6.430;2024-01-16T05:41:40;42.90;;;21.30;;
35969;SDS011;22448;51.298;6.430;2024-01-16T05:44:07;45.42;;;21.63;;
35969;SDS011;22448;51.298;6.430;2024-01-16T05:46:34;47.17;;;20.42;;
35969;SDS011;22448;51.298;6.430;2024-01-16T05:49:01;47.40;;;20.10;;
35969;SDS011;22448;51.298;6.430;2024-01-16T05:51:29;46.63;;;18.05;;
35969;SDS011;22448;51.298;6.430;2024-01-16T05:53:56;36.97;;;18.27;;
35969;SDS011;22448;51.298;6.430;2024-01-16T05:56:23;40.22;;;17.00;;
35969;SDS011;22448;51.298;6.430;2024-01-16T05:58:50;46.03;;;16.35;;
35969;SDS011;22448;51.298;6.430;2024-01-16T06:01:18;44.47;;;16.33;;
35969;SDS011;22448;51.298;6.430;2024-01-16T06:03:46;37.97;;;13.85;;
35969;SDS011;22448;51.298;6.430;2024-01-16T06:06:15;36.72;;;13.75;;
35969;SDS011;22448;51.298;6.430;2024-01-16T06:08:43;30.10;;;14.25;;
35969;SDS011;22448;51.298;6.430;2024-01-16T06:11:10;35.55;;;12.70;;
35969;SDS011;22448;51.298;6.430;2024-01-16T06:13:40;40.80;;;12.40;;
35969;SDS011;22448;51.298;6.430;2024-01-16T06:16:07;31.55;;;12.48;;
35969;SDS011;22448;51.298;6.430;2024-01-16T06:18:34;31.25;;;11.90;;
35969;SDS011;22448;51.298;6.430;2024-01-16T06:21:02;29.92;;;13.07;;
35969;SDS011;22448;51.298;6.430;2024-01-16T06:23:30;32.95;;;11.80;;
35969;SDS011;22448;51.298;6.430;2024-01-16T06:25:57;43.70;;;11.63;;
35969;SDS011;22448;51.298;6.430;2024-01-16T06:28:25;25.02;;;11.40;;
35969;SDS011;22448;51.298;6.430;2024-01-16T06:30:52;24.80;;;9.57;;
35969;SDS011;22448;51.298;6.430;2024-01-16T06:33:19;28.75;;;9.18;;
35969;SDS011;22448;51.298;6.430;2024-01-16T06:35:47;28.25;;;9.48;;
35969;SDS011;22448;51.298;6.430;2024-01-16T06:38:18;19.65;;;9.02;;
35969;SDS011;22448;51.298;6.430;2024-01-16T06:40:45;35.60;;;10.65;;
35969;SDS011;22448;51.298;6.430;2024-01-16T06:43:12;21.58;;;8.40;;
35969;SDS011;22448;51.298;6.430;2024-01-16T06:45:42;29.83;;;9.85;;
35969;SDS011;22448;51.298;6.430;2024-01-16T06:48:09;36.13;;;9.30;;
35969;SDS011;22448;51.298;6.430;2024-01-16T06:50:37;29.02;;;8.35;;
35969;SDS011;22448;51.298;6.430;2024-01-16T06:53:04;23.23;;;8.85;;
35969;SDS011;22448;51.298;6.430;2024-01-16T06:55:31;21.35;;;8.23;;
35969;SDS011;22448;51.298;6.430;2024-01-16T06:57:58;33.30;;;8.73;;
35969;SDS011;22448;51.298;6.430;2024-01-16T07:00:25;24.27;;;8.00;;
35969;SDS011;22448;51.298;6.430;2024-01-16T07:02:54;23.05;;;7.38;;
35969;SDS011;22448;51.298;6.430;2024-01-16T07:05:21;29.27;;;8.00;;
35969;SDS011;22448;51.298;6.430;2024-01-16T07:07:48;19.35;;;7.53;;
35969;SDS011;22448;51.298;6.430;2024-01-16T07:10:15;27.35;;;8.43;;
35969;SDS011;22448;51.298;6.430;2024-01-16T07:12:45;21.55;;;6.57;;
35969;SDS011;22448;51.298;6.430;2024-01-16T07:15:12;18.38;;;6.43;;
35969;SDS011;22448;51.298;6.430;2024-01-16T07:17:40;23.42;;;7.28;;
35969;SDS011;22448;51.298;6.430;2024-01-16T07:20:07;26.27;;;7.15;;
35969;SDS011;22448;51.298;6.430;2024-01-16T07:22:36;23.00;;;7.28;;
35969;SDS011;22448;51.298;6.430;2024-01-16T07:25:04;21.08;;;7.00;;
35969;SDS011;22448;51.298;6.430;2024-01-16T07:27:31;34.38;;;7.40;;
35969;SDS011;22448;51.298;6.430;2024-01-16T07:29:58;24.95;;;6.60;;
35969;SDS011;22448;51.298;6.430;2024-01-16T07:32:25;23.45;;;6.28;;
35969;SDS011;22448;51.298;6.430;2024-01-16T07:34:56;18.58;;;5.82;;
35969;SDS011;22448;51.298;6.430;2024-01-16T07:37:23;20.83;;;6.15;;
35969;SDS011;22448;51.298;6.430;2024-01-16T07:39:50;19.65;;;5.97;;
35969;SDS011;22448;51.298;6.430;2024-01-16T07:42:17;20.30;;;5.93;;
35969;SDS011;22448;51.298;6.430;2024-01-16T07:44:44;19.30;;;6.00;;
35969;SDS011;22448;51.298;6.430;2024-01-16T07:47:12;22.80;;;5.60;;
35969;SDS011;22448;51.298;6.430;2024-01-16T07:49:39;23.58;;;6.05;;
35969;SDS011;22448;51.298;6.430;2024-01-16T07:52:06;24.08;;;5.80;;
35969;SDS011;22448;51.298;6.430;2024-01-16T07:54:33;17.48;;;4.95;;
35969;SDS011;22448;51.298;6.430;2024-01-16T07:57:00;16.95;;;5.25;;
35969;SDS011;22448;51.298;6.430;2024-01-16T07:59:27;41.53;;;5.80;;
35969;SDS011;22448;51.298;6.430;2024-01-16T08:01:54;15.50;;;5.68;;
35969;SDS011;22448;51.298;6.430;2024-01-16T08:04:21;18.15;;;5.97;;
35969;SDS011;22448;51.298;6.430;2024-01-16T08:06:48;27.73;;;5.63;;
35969;SDS011;22448;51.298;6.430;2024-01-16T08:09:15;73.70;;;30.95;;
35969;SDS011;22448;51.298;6.430;2024-01-16T08:11:42;21.77;;;9.57;;
35969;SDS011;22448;51.298;6.430;2024-01-16T08:14:10;78.22;;;31.52;;
35969;SDS011;22448;51.298;6.430;2024-01-16T08:16:37;34.63;;;10.85;;
35969;SDS011;22448;51.298;6.430;2024-01-16T08:19:04;23.33;;;6.82;;
35969;SDS011;22448;51.298;6.430;2024-01-16T08:21:31;29.15;;;8.27;;
35969;SDS011;22448;51.298;6.430;2024-01-16T08:23:58;16.33;;;5.90;;
35969;SDS011;22448;51.298;6.430;2024-01-16T08:26:25;27.15;;;7.43;;
35969;SDS011;22448;51.298;6.430;2024-01-16T08:28:52;16.83;;;6.40;;
35969;SDS011;22448;51.298;6.430;2024-01-16T08:31:20;22.65;;;8.43;;
35969;SDS011;22448;51.298;6.430;2024-01-16T08:33:47;20.88;;;6.60;;
35969;SDS011;22448;51.298;6.430;2024-01-16T08:36:19;21.23;;;6.03;;
35969;SDS011;22448;51.298;6.430;2024-01-16T08:38:46;17.23;;;6.10;;
35969;SDS011;22448;51.298;6.430;2024-01-16T08:41:13;26.98;;;6.45;;
35969;SDS011;22448;51.298;6.430;2024-01-16T08:43:40;25.95;;;6.63;;
35969;SDS011;22448;51.298;6.430;2024-01-16T08:46:07;23.63;;;6.50;;
35969;SDS011;22448;51.298;6.430;2024-01-16T08:48:34;20.17;;;6.55;;
35969;SDS011;22448;51.298;6.430;2024-01-16T08:51:04;21.92;;;6.72;;
35969;SDS011;22448;51.298;6.430;2024-01-16T08:53:33;25.38;;;6.53;;
35969;SDS011;22448;51.298;6.430;2024-01-16T08:56:01;19.48;;;6.18;;
35969;SDS011;22448;51.298;6.430;2024-01-16T08:58:29;18.83;;;6.35;;
35969;SDS011;22448;51.298;6.430;2024-01-16T09:00:56;36.88;;;6.53;;
35969;SDS011;22448;51.298;6.430;2024-01-16T09:03:23;16.45;;;6.30;;
35969;SDS011;22448;51.298;6.430;2024-01-16T09:05:50;18.83;;;7.03;;
35969;SDS011;22448;51.298;6.430;2024-01-16T09:08:18;15.48;;;6.25;;
35969;SDS011;22448;51.298;6.430;2024-01-16T09:10:45;15.00;;;5.93;;
35969;SDS011;22448;51.298;6.430;2024-01-16T09:13:12;19.67;;;6.38;;
35969;SDS011;22448;51.298;6.430;2024-01-16T09:15:39;22.58;;;6.93;;
35969;SDS011;22448;51.298;6.430;2024-01-16T09:18:06;22.48;;;6.60;;
35969;SDS011;22448;51.298;6.430;2024-01-16T09:20:34;13.65;;;6.20;;
35969;SDS011;22448;51.298;6.430;2024-01-16T09:23:01;19.50;;;6.05;;
35969;SDS011;22448;51.298;6.430;2024-01-16T09:25:28;24.55;;;6.70;;
35969;SDS011;22448;51.298;6.430;2024-01-16T09:27:56;22.00;;;6.10;;
35969;SDS011;22448;51.298;6.430;2024-01-16T09:30:22;21.63;;;6.68;;
35969;SDS011;22448;51.298;6.430;2024-01-16T09:32:49;24.48;;;6.50;;
35969;SDS011;22448;51.298;6.430;2024-01-16T09:35:16;20.63;;;6.32;;
35969;SDS011;22448;51.298;6.430;2024-01-16T09:37:43;18.50;;;6.90;;
35969;SDS011;22448;51.298;6.430;2024-01-16T09:40:10;23.08;;;7.22;;
35969;SDS011;22448;51.298;6.430;2024-01-16T09:42:38;24.00;;;7.22;;
35969;SDS011;22448;51.298;6.430;2024-01-16T09:45:04;27.38;;;7.60;;
35969;SDS011;22448;51.298;6.430;2024-01-16T09:47:32;13.38;;;6.60;;
35969;SDS011;22448;51.298;6.430;2024-01-16T09:50:01;26.33;;;7.22;;
35969;SDS011;22448;51.298;6.430;2024-01-16T09:52:29;23.40;;;7.35;;
35969;SDS011;22448;51.298;6.430;2024-01-16T09:54:56;22.30;;;6.72;;
35969;SDS011;22448;51.298;6.430;2024-01-16T09:57:26;19.05;;;6.35;;
35969;SDS011;22448;51.298;6.430;2024-01-16T09:59:56;24.67;;;7.30;;
35969;SDS011;22448;51.298;6.430;2024-01-16T10:02:25;25.40;;;7.20;;
35969;SDS011;22448;51.298;6.430;2024-01-16T10:04:52;17.90;;;6.38;;
35969;SDS011;22448;51.298;6.430;2024-01-16T10:07:19;18.95;;;6.40;;
35969;SDS011;22448;51.298;6.430;2024-01-16T10:09:56;20.30;;;7.03;;
35969;SDS011;22448;51.298;6.430;2024-01-16T10:12:23;24.00;;;6.90;;
35969;SDS011;22448;51.298;6.430;2024-01-16T10:14:51;26.63;;;7.18;;
35969;SDS011;22448;51.298;6.430;2024-01-16T10:17:20;23.08;;;7.75;;
35969;SDS011;22448;51.298;6.430;2024-01-16T10:19:48;26.52;;;7.28;;
35969;SDS011;22448;51.298;6.430;2024-01-16T10:22:21;26.83;;;7.80;;
35969;SDS011;22448;51.298;6.430;2024-01-16T10:25:05;16.52;;;7.22;;
35969;SDS011;22448;51.298;6.430;2024-01-16T10:27:35;23.00;;;7.80;;
35969;SDS011;22448;51.298;6.430;2024-01-16T10:30:02;24.27;;;8.48;;
35969;SDS011;22448;51.298;6.430;2024-01-16T10:32:33;26.52;;;8.73;;
35969;SDS011;22448;51.298;6.430;2024-01-16T10:35:05;19.70;;;8.23;;
35969;SDS011;22448;51.298;6.430;2024-01-16T10:37:47;32.17;;;7.85;;
35969;SDS011;22448;51.298;6.430;2024-01-16T10:40:18;24.67;;;7.47;;
35969;SDS011;22448;51.298;6.430;2024-01-16T10:42:57;20.95;;;6.45;;
35969;SDS011;22448;51.298;6.430;2024-01-16T10:45:27;19.95;;;6.60;;
35969;SDS011;22448;51.298;6.430;2024-01-16T10:48:01;27.30;;;7.55;;
35969;SDS011;22448;51.298;6.430;2024-01-16T10:50:31;30.50;;;10.02;;
35969;SDS011;22448;51.298;6.430;2024-01-16T10:52:59;21.40;;;7.45;;
35969;SDS011;22448;51.298;6.430;2024-01-16T10:55:29;23.55;;;7.47;;
35969;SDS011;22448;51.298;6.430;2024-01-16T10:57:58;22.08;;;11.18;;
35969;SDS011;22448;51.298;6.430;2024-01-16T11:00:27;21.13;;;6.78;;
35969;SDS011;22448;51.298;6.430;2024-01-16T11:03:07;20.83;;;7.32;;
35969;SDS011;22448;51.298;6.430;2024-01-16T11:05:41;23.27;;;7.25;;
35969;SDS011;22448;51.298;6.430;2024-01-16T11:08:11;21.67;;;7.55;;
35969;SDS011;22448;51.298;6.430;2024-01-16T11:10:43;25.33;;;7.00;;
35969;SDS011;22448;51.298;6.430;2024-01-16T11:13:11;15.68;;;7.38;;
35969;SDS011;22448;51.298;6.430;2024-01-16T11:15:39;25.13;;;8.50;;
35969;SDS011;22448;51.298;6.430;2024-01-16T11:18:08;24.25;;;8.48;;
35969;SDS011;22448;51.298;6.430;2024-01-16T11:20:36;19.25;;;7.03;;
35969;SDS011;22448;51.298;6.430;2024-01-16T11:23:24;22.85;;;7.78;;
35969;SDS011;22448;51.298;6.430;2024-01-16T11:25:51;24.85;;;7.78;;
35969;SDS011;22448;51.298;6.430;2024-01-16T11:28:18;23.58;;;7.47;;
35969;SDS011;22448;51.298;6.430;2024-01-16T11:30:46;30.67;;;7.68;;
35969;SDS011;22448;51.298;6.430;2024-01-16T11:36:00;17.02;;;6.30;;
35969;SDS011;22448;51.298;6.430;2024-01-16T11:38:28;25.55;;;6.97;;
35969;SDS011;22448;51.298;6.430;2024-01-16T11:40:59;18.60;;;7.05;;
35969;SDS011;22448;51.298;6.430;2024-01-16T11:46:00;23.17;;;6.75;;
35969;SDS011;22448;51.298;6.430;2024-01-16T11:48:31;17.30;;;7.40;;
35969;SDS011;22448;51.298;6.430;2024-01-16T11:50:58;22.90;;;7.47;;
35969;SDS011;22448;51.298;6.430;2024-01-16T11:53:38;22.55;;;6.65;;
35969;SDS011;22448;51.298;6.430;2024-01-16T11:56:54;19.85;;;6.70;;
35969;SDS011;22448;51.298;6.430;2024-01-16T12:02:28;22.67;;;7.50;;
35969;SDS011;22448;51.298;6.430;2024-01-16T12:05:13;24.00;;;7.43;;
35969;SDS011;22448;51.298;6.430;2024-01-16T12:07:45;24.35;;;7.35;;
35969;SDS011;22448;51.298;6.430;2024-01-16T12:10:26;23.42;;;7.13;;
35969;SDS011;22448;51.298;6.430;2024-01-16T12:12:57;22.80;;;8.38;;
35969;SDS011;22448;51.298;6.430;2024-01-16T12:15:30;27.17;;;10.40;;
35969;SDS011;22448;51.298;6.430;2024-01-16T12:17:58;26.88;;;8.57;;
35969;SDS011;22448;51.298;6.430;2024-01-16T12:20:31;56.38;;;16.33;;
35969;SDS011;22448;51.298;6.430;2024-01-16T12:23:06;49.92;;;14.75;;
35969;SDS011;22448;51.298;6.430;2024-01-16T12:25:34;41.22;;;13.13;;
35969;SDS011;22448;51.298;6.430;2024-01-16T12:28:21;27.02;;;9.75;;
35969;SDS011;22448;51.298;6.430;2024-01-16T12:30:58;53.38;;;17.33;;
35969;SDS011;22448;51.298;6.430;2024-01-16T12:33:27;37.22;;;12.70;;
35969;SDS011;22448;51.298;6.430;2024-01-16T12:36:02;33.95;;;12.43;;
35969;SDS011;22448;51.298;6.430;2024-01-16T12:38:31;29.17;;;12.55;;
35969;SDS011;22448;51.298;6.430;2024-01-16T12:40:58;24.75;;;9.50;;
35969;SDS011;22448;51.298;6.430;2024-01-16T12:43:28;33.78;;;10.00;;
35969;SDS011;22448;51.298;6.430;2024-01-16T12:45:56;23.42;;;8.65;;
35969;SDS011;22448;51.298;6.430;2024-01-16T12:48:24;17.05;;;7.10;;
35969;SDS011;22448;51.298;6.430;2024-01-16T12:50:59;14.82;;;6.65;;
35969;SDS011;22448;51.298;6.430;2024-01-16T12:53:29;25.33;;;6.30;;
35969;SDS011;22448;51.298;6.430;2024-01-16T12:55:59;17.58;;;6.03;;
35969;SDS011;22448;51.298;6.430;2024-01-16T12:58:31;21.05;;;7.60;;
35969;SDS011;22448;51.298;6.430;2024-01-16T13:04:05;16.02;;;5.93;;
35969;SDS011;22448;51.298;6.430;2024-01-16T13:06:33;16.85;;;5.05;;
35969;SDS011;22448;51.298;6.430;2024-01-16T13:09:07;20.83;;;6.50;;
35969;SDS011;22448;51.298;6.430;2024-01-16T13:14:18;22.48;;;5.65;;
35969;SDS011;22448;51.298;6.430;2024-01-16T13:16:49;15.15;;;5.45;;
35969;SDS011;22448;51.298;6.430;2024-01-16T13:19:18;20.63;;;7.65;;
35969;SDS011;22448;51.298;6.430;2024-01-16T13:21:47;18.42;;;6.95;;
35969;SDS011;22448;51.298;6.430;2024-01-16T13:24:15;22.70;;;7.90;;
35969;SDS011;22448;51.298;6.430;2024-01-16T13:26:44;23.63;;;9.00;;
35969;SDS011;22448;51.298;6.430;2024-01-16T13:29:11;19.50;;;8.18;;
35969;SDS011;22448;51.298;6.430;2024-01-16T13:31:39;17.45;;;6.63;;
35969;SDS011;22448;51.298;6.430;2024-01-16T13:34:06;20.23;;;5.20;;
35969;SDS011;22448;51.298;6.430;2024-01-16T13:36:35;21.48;;;6.30;;
35969;SDS011;22448;51.298;6.430;2024-01-16T13:39:05;24.77;;;7.75;;
35969;SDS011;22448;51.298;6.430;2024-01-16T13:41:41;17.23;;;7.68;;
35969;SDS011;22448;51.298;6.430;2024-01-16T13:44:09;21.38;;;7.35;;
35969;SDS011;22448;51.298;6.430;2024-01-16T13:46:36;29.75;;;7.13;;
35969;SDS011;22448;51.298;6.430;2024-01-16T13:49:24;16.75;;;6.25;;
35969;SDS011;22448;51.298;6.430;2024-01-16T13:51:51;21.30;;;7.28;;
35969;SDS011;22448;51.298;6.430;2024-01-16T13:54:18;18.00;;;6.93;;
35969;SDS011;22448;51.298;6.430;2024-01-16T13:56:45;17.63;;;7.50;;
35969;SDS011;22448;51.298;6.430;2024-01-16T13:59:32;21.02;;;7.15;;
35969;SDS011;22448;51.298;6.430;2024-01-16T14:01:59;28.83;;;8.68;;
35969;SDS011;22448;51.298;6.430;2024-01-16T14:04:27;15.90;;;7.68;;
35969;SDS011;22448;51.298;6.430;2024-01-16T14:06:54;16.20;;;5.80;;
35969;SDS011;22448;51.298;6.430;2024-01-16T14:09:38;13.80;;;6.45;;
35969;SDS011;22448;51.298;6.430;2024-01-16T14:12:09;27.63;;;7.88;;
35969;SDS011;22448;51.298;6.430;2024-01-16T14:14:36;22.08;;;7.10;;
35969;SDS011;22448;51.298;6.430;2024-01-16T14:17:04;15.18;;;6.43;;
35969;SDS011;22448;51.298;6.430;2024-01-16T14:19:35;17.35;;;5.68;;
35969;SDS011;22448;51.298;6.430;2024-01-16T14:22:03;16.67;;;6.10;;
35969;SDS011;22448;51.298;6.430;2024-01-16T14:24:31;19.90;;;5.93;;
35969;SDS011;22448;51.298;6.430;2024-01-16T14:26:58;18.13;;;6.28;;
35969;SDS011;22448;51.298;6.430;2024-01-16T14:29:25;13.20;;;5.03;;
35969;SDS011;22448;51.298;6.430;2024-01-16T14:31:53;19.70;;;6.13;;
35969;SDS011;22448;51.298;6.430;2024-01-16T14:34:24;25.75;;;5.95;;
35969;SDS011;22448;51.298;6.430;2024-01-16T14:36:51;15.35;;;5.82;;
35969;SDS011;22448;51.298;6.430;2024-01-16T14:39:20;17.33;;;5.55;;
35969;SDS011;22448;51.298;6.430;2024-01-16T14:44:44;16.17;;;5.80;;
35969;SDS011;22448;51.298;6.430;2024-01-16T14:47:13;16.77;;;6.45;;
35969;SDS011;22448;51.298;6.430;2024-01-16T14:49:40;17.63;;;6.25;;
35969;SDS011;22448;51.298;6.430;2024-01-16T14:52:07;11.68;;;5.75;;
35969;SDS011;22448;51.298;6.430;2024-01-16T14:54:35;18.42;;;6.38;;
35969;SDS011;22448;51.298;6.430;2024-01-16T14:57:02;15.13;;;5.38;;